Neskowin, OR (97149)

12:13 PM PDT on August 30, 2015 (GMT -0700)
Aeolian Way Chesterhill | | Change Station
CLOSE
Current Station
Personal Weather Station
Location: Neskowin, OR
Elevation: 381 ft
Nearby Weather Stations

Elev 381 ft 45.14 °N, 123.96 °W | Updated 34 seconds ago

Mostly Cloudy
Mostly Cloudy
64.0 °F
Feels Like 64.0 °F
N
11.0
Wind Variable Wind from WSW
Gusts 12.0 mph

Today
High -- | Low -- °F
--% Chance of Precip.
Yesterday
High -- | Low -- °F
Precip. -- in
6:35 AM 7:56 PM
Full, 98% visible
Pressure 30.01 in
Visibility 10.0 miles
Clouds Scattered Clouds 2000 ft
Scattered Clouds 4800 ft
Overcast 8500 ft
Dew Point 58 °F
Humidity 81%
Rainfall 0.09 in
Snow Depth Not available.
UV 2 out of 12
Pollen .50 out of 12
Air Quality Not available.
Flu Activity Not available.
METAR KTMK 301855Z AUTO 20010G17KT 10SM SCT020 SCT048 OVC085 18/14 A3001 RMK AO2
Pressure 30.01 in
Visibility 10.0 miles
Clouds Scattered Clouds 2000 ft
Scattered Clouds 4800 ft
Overcast 8500 ft
Dew Point 58 °F
Humidity 81%
Rainfall 0.09 in
Snow Depth Not available.
UV 2 out of 12
Pollen .50 out of 12
Air Quality Not available.
Flu Activity Not available.
METAR KTMK 301855Z AUTO 20010G17KT 10SM SCT020 SCT048 OVC085 18/14 A3001 RMK AO2

10-Day Weather Forecast

×

Almanac

Astronomy

Aug. 30, 2015 Rise Set
Actual Time
Civil Twilight
Nautical Twilight
Astronomical Twilight
Moon
Length of Visible Light
Length of Day
Tomorrow will be .
, % of the Moon is Illuminated

Today's Extremes

State Highs State Lows

Community

WunderPhotos

Upload Photos

1,851,036 photos uploaded!

WunderBlogs® & News

Nearby

Air Quality

  Air Quality AQ Index Pollutant
Not available.

Snow Depth

Station Depth Elevation

Earthquake Activity

City Distance Mag. Time & Date
Minimum magnitude displayed is 2.5.

Coastal Water Temperatures

Place Temperature

Stations

Nearby Weather Stations

Station Location Temp. Windchill Dew Point Humidity Wind Precip. Elev Updated Type